Bath, Michigan
Current Conditions -  °F | °C
As of 8:53 PM on Monday 20 Oct 2014 (Local Time) from KLAN Reporting Station
Overcast Overcast  
Wind Chill: 53°   Ceiling: 2000
Heat Index: 53°   Visibility: 10mi
Dew Point: 46°   Wind: 9mph
Humidity: 77%   Direction: 350°N
Pressure: 29.88"   Gusts: NA
Location:  42.82°N, 84.45°W
Report Text: KLAN 210053Z 35008KT 10SM BKN020 BKN027 OVC070 12/08 A2988 RMK AO2 SLP122 T01170078
Loading
Personal Weather Stations






























Interactive Weather Map
Tropical Storm Tracking
New forecast layout! Learn more

10-Day Weather Forecast

Advertisements
Track Severe Weather on mobile